Time;durP1;ratioP1;P1;durP2;ratioP2;P2;SDS_P1;SDS_P2;PMS_P1;PMS_P2;Temp;Humidity;BMP_temperature;BMP_pressure;BME280_temperature;BME280_humidity;BME280_pressure;Samples;Min_cycle;Max_cycle;Signal;HPM_P1;HPM_P2
2023/04/29 00:01:08;;;;;;;50.40;23.05;;;;;;;9.17;100.00;101357.13;4966303;28;20125;-68
2023/04/29 00:03:34;;;;;;;50.63;21.17;;;;;;;9.19;100.00;101364.25;4967001;28;20055;-68
2023/04/29 00:06:00;;;;;;;48.13;20.17;;;;;;;9.20;100.00;101362.41;4966996;28;20057;-69
2023/04/29 00:08:26;;;;;;;44.42;20.90;;;;;;;9.22;100.00;101373.16;4967369;28;20035;-69
2023/04/29 00:10:51;;;;;;;45.95;21.77;;;;;;;9.25;100.00;101365.72;4967119;28;20482;-69
2023/04/29 00:13:17;;;;;;;45.08;21.30;;;;;;;9.24;100.00;101377.53;4977797;28;20030;-69
2023/04/29 00:15:43;;;;;;;45.28;21.20;;;;;;;9.19;100.00;101375.09;4985757;28;20041;-69
2023/04/29 00:18:09;;;;;;;49.83;21.65;;;;;;;9.17;100.00;101370.72;4986841;28;20042;-69
2023/04/29 00:20:34;;;;;;;51.88;22.88;;;;;;;9.16;100.00;101374.41;4971643;28;20058;-69
2023/04/29 00:22:59;;;;;;;45.83;22.50;;;;;;;9.10;100.00;101375.63;4966603;28;20043;-71
2023/04/29 00:25:25;;;;;;;48.65;21.92;;;;;;;9.09;100.00;101370.28;4967254;28;20070;-70
2023/04/29 00:27:51;;;;;;;45.50;22.85;;;;;;;9.07;100.00;101383.94;4967444;28;20047;-69
2023/04/29 00:30:16;;;;;;;45.47;22.33;;;;;;;9.06;100.00;101376.75;4977900;28;20023;-69
2023/04/29 00:32:43;;;;;;;38.92;21.00;;;;;;;9.07;100.00;101385.78;4980925;28;20360;-70
2023/04/29 00:35:09;;;;;;;40.30;21.77;;;;;;;8.99;100.00;101388.06;4967077;28;20122;-69
2023/04/29 00:37:34;;;;;;;42.50;21.27;;;;;;;8.93;100.00;101381.13;4966455;28;20473;-68
2023/04/29 00:40:00;;;;;;;39.00;20.05;;;;;;;8.93;100.00;101387.44;4967037;28;20037;-69
2023/04/29 00:42:26;;;;;;;37.97;20.80;;;;;;;8.93;100.00;101390.16;4967286;28;20107;-69
2023/04/29 00:44:51;;;;;;;44.63;20.63;;;;;;;8.97;100.00;101395.41;4967493;28;20034;-69
2023/04/29 00:47:17;;;;;;;36.58;19.88;;;;;;;9.00;100.00;101392.50;4967974;28;20399;-68
2023/04/29 00:49:42;;;;;;;38.78;20.35;;;;;;;8.96;100.00;101389.13;4966036;28;20368;-68
2023/04/29 00:52:10;;;;;;;42.55;20.30;;;;;;;8.92;100.00;101388.41;4965693;28;20199;-68
2023/04/29 00:54:36;;;;;;;34.60;18.95;;;;;;;8.94;100.00;101388.31;4966809;28;20478;-69
2023/04/29 00:57:02;;;;;;;39.45;19.05;;;;;;;8.89;100.00;101393.13;4982155;28;20046;-69
2023/04/29 00:59:31;;;;;;;36.55;19.73;;;;;;;8.85;100.00;101400.56;4965953;28;20468;-69
2023/04/29 01:02:02;;;;;;;35.90;19.00;;;;;;;8.85;100.00;101395.13;4967037;28;20085;-69
2023/04/29 01:04:31;;;;;;;39.72;19.67;;;;;;;8.85;100.00;101396.97;4965631;28;20062;-69
2023/04/29 01:07:14;;;;;;;35.33;19.60;;;;;;;8.82;100.00;101399.88;4966129;28;20035;-69
2023/04/29 01:09:53;;;;;;;35.03;18.55;;;;;;;8.84;100.00;101411.50;4980365;28;20042;-69
2023/04/29 01:12:35;;;;;;;40.08;19.45;;;;;;;8.75;100.00;101403.88;4965625;28;20487;-69
2023/04/29 01:15:15;;;;;;;38.03;19.15;;;;;;;8.78;100.00;101411.88;4967317;28;20073;-68
2023/04/29 01:17:59;;;;;;;35.28;19.02;;;;;;;8.79;100.00;101414.47;4968759;28;20089;-69
2023/04/29 01:20:24;;;;;;;;;;;;;;;8.72;100.00;101413.09;4970331;28;20073;-69
2023/04/29 01:22:50;;;;;;;38.65;19.63;;;;;;;8.67;100.00;101415.16;4968466;28;19914;-69
2023/04/29 01:25:16;;;;;;;36.45;19.92;;;;;;;8.65;100.00;101420.66;4970878;28;20109;-68
2023/04/29 01:28:09;;;;;;;36.35;18.98;;;;;;;8.67;100.00;101424.19;4969019;28;20034;-69
2023/04/29 01:30:46;;;;;;;37.70;19.92;;;;;;;8.64;100.00;101426.19;4968956;28;20035;-69
2023/04/29 01:33:31;;;;;;;42.78;21.38;;;;;;;8.62;100.00;101426.25;4969043;28;20133;-69
2023/04/29 01:36:22;;;;;;;37.20;19.70;;;;;;;8.60;100.00;101427.31;4978225;28;20031;-69
2023/04/29 01:39:25;;;;;;;42.58;20.33;;;;;;;8.63;100.00;101435.28;4988052;28;20027;-69
2023/04/29 01:42:17;;;;;;;42.67;20.25;;;;;;;8.63;100.00;101425.31;4986853;28;20034;-69
2023/04/29 01:44:46;;;;;;;43.88;20.27;;;;;;;8.65;100.00;101430.66;4968828;28;20503;-68
2023/04/29 01:47:13;;;;;;;44.28;22.02;;;;;;;8.62;100.00;101434.38;4970482;28;20042;-69
2023/04/29 01:49:45;;;;;;;44.25;20.67;;;;;;;8.66;100.00;101429.69;4968570;28;20111;-69
2023/04/29 01:52:11;;;;;;;44.78;21.75;;;;;;;8.65;100.00;101436.94;4968695;28;20054;-69
2023/04/29 01:54:38;;;;;;;43.92;21.15;;;;;;;8.64;100.00;101434.31;4974569;28;20057;-69
2023/04/29 01:57:03;;;;;;;45.90;22.88;;;;;;;8.63;100.00;101430.75;4968534;28;20723;-69
2023/04/29 01:59:37;;;;;;;55.35;25.23;;;;;;;8.63;100.00;101438.88;4968438;28;20037;-70
2023/04/29 02:02:24;;;;;;;46.35;23.23;;;;;;;8.64;100.00;101437.03;4969240;28;20479;-68
2023/04/29 02:04:57;;;;;;;;;;;;;;;8.67;100.00;101437.75;4968764;28;20042;-70
2023/04/29 02:07:22;;;;;;;53.35;24.05;;;;;;;8.65;100.00;101439.66;4967498;28;19993;-70
2023/04/29 02:09:48;;;;;;;51.67;24.02;;;;;;;8.66;100.00;101440.53;4968703;28;20019;-69
2023/04/29 02:12:13;;;;;;;48.30;23.98;;;;;;;8.65;100.00;101444.22;4967946;28;20509;-70
2023/04/29 02:14:39;;;;;;;56.40;25.35;;;;;;;8.66;100.00;101446.81;4968406;28;20494;-70
2023/04/29 02:17:05;;;;;;;61.50;24.58;;;;;;;8.69;100.00;101453.94;4967930;28;20103;-69
2023/04/29 02:19:30;;;;;;;62.33;25.17;;;;;;;8.66;100.00;101454.97;4967895;28;20023;-70
2023/04/29 02:21:55;;;;;;;54.03;24.95;;;;;;;8.68;100.00;101455.78;4972755;28;20050;-69
2023/04/29 02:24:22;;;;;;;54.05;25.50;;;;;;;8.69;100.00;101457.53;4968064;28;20038;-69
2023/04/29 02:26:47;;;;;;;61.67;26.42;;;;;;;8.65;100.00;101461.34;4967620;28;20045;-70
2023/04/29 02:29:12;;;;;;;60.88;24.88;;;;;;;8.65;100.00;101464.06;4969413;28;20039;-69
2023/04/29 02:31:38;;;;;;;58.58;26.60;;;;;;;8.62;100.00;101464.22;4967556;28;20027;-70
2023/04/29 02:34:04;;;;;;;60.05;26.63;;;;;;;8.60;100.00;101474.28;4969105;28;20037;-69
2023/04/29 02:36:30;;;;;;;63.72;26.67;;;;;;;8.58;100.00;101478.03;4967617;28;20053;-70
2023/04/29 02:38:55;;;;;;;59.88;26.30;;;;;;;8.57;100.00;101473.56;4983749;28;20070;-70
2023/04/29 02:41:21;;;;;;;65.93;25.70;;;;;;;8.55;100.00;101484.50;4968457;28;20074;-70
2023/04/29 02:43:48;;;;;;;59.65;26.40;;;;;;;8.58;100.00;101480.75;4970015;28;20060;-70
2023/04/29 02:46:15;;;;;;;64.93;27.52;;;;;;;8.60;100.00;101481.56;4967641;28;20030;-71
2023/04/29 02:48:40;;;;;;;57.17;27.27;;;;;;;8.58;100.00;101499.72;4967432;28;20046;-69
2023/04/29 02:51:06;;;;;;;61.25;26.45;;;;;;;8.58;100.00;101505.16;4966658;28;20027;-69
2023/04/29 02:53:31;;;;;;;60.42;25.92;;;;;;;8.58;100.00;101506.06;4968375;28;20038;-69
2023/04/29 02:55:57;;;;;;;66.15;27.95;;;;;;;8.55;100.00;101503.50;4966808;28;20115;-70
2023/04/29 02:58:22;;;;;;;64.72;27.10;;;;;;;8.49;100.00;101506.56;4983265;28;20149;-70
2023/04/29 03:00:48;;;;;;;57.72;24.83;;;;;;;8.51;100.00;101512.75;4967849;28;20023;-69
2023/04/29 03:03:13;;;;;;;55.97;25.85;;;;;;;8.54;100.00;101509.00;4968128;28;20105;-70
2023/04/29 03:05:38;;;;;;;63.60;25.35;;;;;;;8.57;100.00;101506.13;4966866;28;20236;-70
2023/04/29 03:08:04;;;;;;;61.67;27.38;;;;;;;8.59;100.00;101515.06;4966696;28;20130;-69
2023/04/29 03:10:30;;;;;;;64.18;27.30;;;;;;;8.57;100.00;101508.84;4966783;28;20026;-69
2023/04/29 03:12:55;;;;;;;62.47;26.83;;;;;;;8.57;100.00;101509.69;4971984;28;20038;-69
2023/04/29 03:15:21;;;;;;;56.90;25.75;;;;;;;8.57;100.00;101519.69;4967099;28;20066;-69
2023/04/29 03:17:47;;;;;;;61.72;25.95;;;;;;;8.55;100.00;101517.06;4967542;28;20075;-69
2023/04/29 03:20:13;;;;;;;68.80;28.70;;;;;;;8.56;100.00;101513.38;4971115;28;20034;-69
2023/04/29 03:22:38;;;;;;;54.53;26.13;;;;;;;8.53;100.00;101518.09;4987083;28;20090;-69
2023/04/29 03:25:04;;;;;;;66.68;26.95;;;;;;;8.54;100.00;101525.28;4986362;28;20038;-69
2023/04/29 03:27:30;;;;;;;56.83;25.63;;;;;;;8.50;100.00;101521.84;4981735;28;20034;-69
2023/04/29 03:29:55;;;;;;;55.58;27.08;;;;;;;8.50;100.00;101527.28;4967068;28;20523;-69
2023/04/29 03:32:21;;;;;;;55.22;25.42;;;;;;;8.51;100.00;101525.44;4966613;28;20121;-69
2023/04/29 03:34:46;;;;;;;58.00;24.85;;;;;;;8.49;100.00;101527.38;4967924;28;20035;-69
2023/04/29 03:37:33;;;;;;;53.92;23.40;;;;;;;8.51;100.00;101530.88;4979096;28;20031;-69
2023/04/29 03:40:13;;;;;;;62.22;24.75;;;;;;;8.49;100.00;101533.66;4966154;28;20158;-69
2023/04/29 03:42:39;;;;;;;53.65;24.70;;;;;;;8.50;100.00;101529.13;4951361;28;20871;-70
2023/04/29 03:45:05;;;;;;;53.75;24.60;;;;;;;8.50;100.00;101532.69;4983136;28;20122;-69
2023/04/29 03:47:31;;;;;;;48.45;24.08;;;;;;;8.49;100.00;101533.66;4967962;28;20030;-69
2023/04/29 03:49:56;;;;;;;50.30;24.63;;;;;;;8.51;100.00;101531.72;4968169;28;20411;-68
2023/04/29 03:52:22;;;;;;;54.33;23.75;;;;;;;8.52;100.00;101538.91;4981161;28;20034;-69
2023/04/29 03:54:52;;;;;;;51.30;25.02;;;;;;;8.53;100.00;101534.34;4969420;28;20414;-68
2023/04/29 03:57:18;;;;;;;45.53;23.23;;;;;;;8.54;100.00;101541.56;4966453;28;20425;-69
2023/04/29 03:59:44;;;;;;;48.83;23.13;;;;;;;8.55;100.00;101536.03;4968838;28;20126;-69
2023/04/29 04:02:09;;;;;;;47.72;21.73;;;;;;;8.57;100.00;101534.13;4966312;28;20322;-68
2023/04/29 04:04:35;;;;;;;50.05;22.83;;;;;;;8.58;100.00;101541.31;4966301;28;20069;-68
2023/04/29 04:07:00;;;;;;;44.13;21.23;;;;;;;8.59;100.00;101544.91;4966651;28;20122;-68
2023/04/29 04:09:32;;;;;;;49.70;22.65;;;;;;;8.61;100.00;101545.69;4966246;28;20249;-69
2023/04/29 04:11:57;;;;;;;49.85;21.67;;;;;;;8.62;100.00;101548.31;4966501;28;20400;-68
2023/04/29 04:14:23;;;;;;;48.78;22.35;;;;;;;8.62;100.00;101556.44;4981994;28;20031;-68
2023/04/29 04:16:49;;;;;;;51.67;21.88;;;;;;;8.65;100.00;101553.56;4966821;28;20031;-68
2023/04/29 04:19:15;;;;;;;47.47;20.92;;;;;;;8.65;100.00;101550.00;4967108;28;20031;-69
2023/04/29 04:21:43;;;;;;;47.28;21.23;;;;;;;8.66;100.00;101560.75;4965136;28;20117;-69
2023/04/29 04:24:09;;;;;;;45.13;21.17;;;;;;;8.62;100.00;101563.69;4966383;28;20904;-69
2023/04/29 04:26:34;;;;;;;44.45;20.98;;;;;;;8.62;100.00;101563.69;4966018;28;20113;-69
2023/04/29 04:29:05;;;;;;;46.00;21.98;;;;;;;8.60;100.00;101557.50;4971586;28;20038;-69
2023/04/29 04:31:44;;;;;;;41.42;20.90;;;;;;;8.51;100.00;101553.44;4969445;28;20105;-68
2023/04/29 04:34:09;;;;;;;44.10;21.10;;;;;;;8.57;100.00;101572.09;4978557;28;20616;-69
2023/04/29 04:36:35;;;;;;;40.92;21.80;;;;;;;8.59;100.00;101575.59;4980237;28;20050;-68
2023/04/29 04:39:01;;;;;;;43.55;19.58;;;;;;;8.59;100.00;101570.19;4981058;28;20455;-69
2023/04/29 04:41:26;;;;;;;40.38;20.38;;;;;;;8.63;100.00;101577.22;4983750;28;20387;-69
2023/04/29 04:43:52;;;;;;;41.25;19.98;;;;;;;8.65;100.00;101583.41;4984334;28;20096;-69
2023/04/29 04:46:33;;;;;;;40.40;19.02;;;;;;;8.65;100.00;101580.69;4980437;28;20035;-69
2023/04/29 04:49:15;;;;;;;38.28;19.40;;;;;;;8.68;100.00;101582.38;4984833;28;20077;-69
2023/04/29 04:51:47;;;;;;;36.40;17.63;;;;;;;8.70;100.00;101591.31;4987911;28;20041;-69
2023/04/29 04:54:13;;;;;;;40.92;20.15;;;;;;;8.72;100.00;101596.63;4984463;28;20041;-69
2023/04/29 04:56:38;;;;;;;37.00;18.42;;;;;;;8.74;100.00;101608.31;4977946;28;20123;-68
2023/04/29 04:59:05;;;;;;;38.35;19.77;;;;;;;8.76;100.00;101614.50;4980944;28;20554;-69
2023/04/29 05:01:33;;;;;;;44.03;18.38;;;;;;;8.78;100.00;101626.19;4968433;28;20077;-69
2023/04/29 05:03:59;;;;;;;33.20;18.50;;;;;;;8.78;100.00;101618.91;4977896;28;20058;-69
2023/04/29 05:06:25;;;;;;;36.15;18.25;;;;;;;8.80;100.00;101618.81;4986018;28;20540;-68
2023/04/29 05:08:51;;;;;;;36.80;18.45;;;;;;;8.75;100.00;101613.63;4980198;28;20026;-69
2023/04/29 05:11:21;;;;;;;40.78;18.48;;;;;;;8.79;100.00;101617.09;4969538;28;20031;-68
2023/04/29 05:14:02;;;;;;;32.00;17.23;;;;;;;8.80;100.00;101621.53;4968443;28;20046;-68
2023/04/29 05:16:28;;;;;;;34.85;18.95;;;;;;;8.78;100.00;101626.19;4968911;28;20034;-69
2023/04/29 05:18:53;;;;;;;39.13;19.13;;;;;;;8.74;100.00;101625.47;4969303;28;20118;-69
2023/04/29 05:21:25;;;;;;;36.92;18.77;;;;;;;8.74;100.00;101632.72;4968984;28;20419;-69
2023/04/29 05:23:50;;;;;;;33.30;18.45;;;;;;;8.71;100.00;101636.47;4976067;28;20077;-69
2023/04/29 05:26:15;;;;;;;38.20;19.02;;;;;;;8.69;100.00;101632.97;4982672;28;20034;-69
2023/04/29 05:28:41;;;;;;;38.13;18.55;;;;;;;8.71;100.00;101643.72;4981810;28;20030;-68
2023/04/29 05:31:08;;;;;;;36.83;18.15;;;;;;;8.67;100.00;101643.00;4971988;28;20026;-69
2023/04/29 05:33:34;;;;;;;35.70;18.77;;;;;;;8.67;100.00;101643.91;4988291;28;20064;-69
2023/04/29 05:36:00;;;;;;;32.45;18.80;;;;;;;8.67;100.00;101648.41;4985108;28;20482;-69
2023/04/29 05:38:27;;;;;;;32.97;17.33;;;;;;;8.70;100.00;101648.28;4969585;28;20039;-68
2023/04/29 05:41:04;;;;;;;37.83;18.40;;;;;;;8.70;100.00;101648.28;4983202;28;20066;-68
2023/04/29 05:43:42;;;;;;;36.17;18.45;;;;;;;8.70;100.00;101651.00;4980205;28;20030;-68
2023/04/29 05:46:07;;;;;;;31.05;17.52;;;;;;;8.74;100.00;101657.13;4972219;28;20045;-68
2023/04/29 05:48:33;;;;;;;37.85;19.27;;;;;;;8.73;100.00;101666.25;4987940;28;20493;-68
2023/04/29 05:50:58;;;;;;;38.63;20.75;;;;;;;8.71;100.00;101668.13;4983424;28;20057;-68
2023/04/29 05:53:24;;;;;;;38.88;19.40;;;;;;;8.73;100.00;101668.97;4968699;28;20042;-68
2023/04/29 05:55:50;;;;;;;33.88;17.85;;;;;;;8.73;100.00;101667.13;4983109;28;20037;-69
2023/04/29 05:58:16;;;;;;;39.22;19.10;;;;;;;8.79;100.00;101677.63;4970291;28;20030;-68
2023/04/29 06:00:42;;;;;;;46.92;19.25;;;;;;;8.81;100.00;101674.84;4986752;28;20076;-68
2023/04/29 06:03:14;;;;;;;37.70;19.17;;;;;;;8.80;100.00;101673.09;4984986;28;20117;-69
2023/04/29 06:05:39;;;;;;;36.20;17.52;;;;;;;8.84;100.00;101686.41;4976141;28;20947;-69
2023/04/29 06:08:37;;;;;;;34.28;17.02;;;;;;;8.89;100.00;101687.06;4981272;28;20089;-68
2023/04/29 06:11:13;;;;;;;37.55;19.25;;;;;;;8.90;100.00;101694.22;4983097;28;20062;-69
2023/04/29 06:13:39;;;;;;;42.58;18.05;;;;;;;8.88;100.00;101689.88;4984503;28;20062;-68
2023/04/29 06:16:04;;;;;;;35.35;18.10;;;;;;;8.89;100.00;101688.91;4967720;28;20526;-68
2023/04/29 06:18:32;;;;;;;31.05;17.25;;;;;;;8.92;100.00;101700.47;4984002;28;20450;-68
2023/04/29 06:20:58;;;;;;;38.63;18.52;;;;;;;8.93;100.00;101702.22;4985094;28;20027;-68
2023/04/29 06:23:23;;;;;;;36.85;17.58;;;;;;;8.96;100.00;101694.91;4987972;28;20030;-69
2023/04/29 06:25:49;;;;;;;32.95;18.17;;;;;;;8.96;100.00;101701.19;4987274;28;20121;-68
2023/04/29 06:28:14;;;;;;;31.67;17.98;;;;;;;8.98;100.00;101709.25;4986581;28;20034;-67
2023/04/29 06:30:40;;;;;;;31.52;17.67;;;;;;;9.00;100.00;101702.81;4983738;28;20045;-68
2023/04/29 06:33:07;;;;;;;33.05;17.60;;;;;;;9.09;100.00;101706.84;4969721;28;20029;-68
2023/04/29 06:35:32;;;;;;;38.60;18.00;;;;;;;9.16;100.00;101724.59;4986567;28;20064;-68
2023/04/29 06:38:23;;;;;;;30.88;16.70;;;;;;;9.23;100.00;101723.28;4984328;28;20368;-68
2023/04/29 06:41:15;;;;;;;30.57;18.17;;;;;;;9.32;100.00;101730.06;4987260;28;20724;-68
2023/04/29 06:44:12;;;;;;;34.58;17.70;;;;;;;9.29;100.00;101728.41;4973047;28;20858;-68
2023/04/29 06:46:58;;;;;;;30.67;16.30;;;;;;;9.37;100.00;101734.31;4967412;28;20066;-68
2023/04/29 06:49:44;;;;;;;33.53;16.85;;;;;;;9.45;100.00;101742.03;4976475;28;20069;-68
2023/04/29 06:52:09;;;;;;;29.70;15.93;;;;;;;9.51;100.00;101747.13;4977179;28;20034;-68
2023/04/29 06:54:35;;;;;;;32.58;17.77;;;;;;;9.59;100.00;101746.72;4980818;28;20043;-68
2023/04/29 06:57:01;;;;;;;31.20;16.73;;;;;;;9.67;100.00;101756.22;4970671;28;20445;-68
2023/04/29 06:59:26;;;;;;;30.67;16.63;;;;;;;9.71;100.00;101756.94;4982753;28;20034;-68
2023/04/29 07:01:51;;;;;;;33.70;16.60;;;;;;;9.75;100.00;101760.38;4978972;28;20061;-69
2023/04/29 07:04:18;;;;;;;30.27;17.02;;;;;;;9.82;100.00;101765.38;4975230;28;20564;-68
2023/04/29 07:06:46;;;;;;;28.25;15.18;;;;;;;9.89;100.00;101766.81;4966381;28;20038;-68
2023/04/29 07:09:15;;;;;;;26.02;15.00;;;;;;;9.91;100.00;101770.31;4979976;28;20077;-69
2023/04/29 07:11:40;;;;;;;32.20;16.92;;;;;;;9.91;99.27;101778.47;4983056;28;20030;-68
2023/04/29 07:14:06;;;;;;;31.67;17.33;;;;;;;9.92;100.00;101776.63;4978573;28;20034;-69
2023/04/29 07:16:32;;;;;;;30.75;17.95;;;;;;;9.89;99.83;101777.69;4978818;28;20042;-67
2023/04/29 07:18:58;;;;;;;28.70;15.75;;;;;;;9.90;99.25;101778.56;4968707;28;20081;-69
2023/04/29 07:21:24;;;;;;;30.65;15.95;;;;;;;9.88;99.06;101773.19;4982981;28;20053;-69
2023/04/29 07:23:49;;;;;;;33.60;17.10;;;;;;;9.90;98.36;101787.59;4983330;28;20042;-70
2023/04/29 07:26:16;;;;;;;32.70;17.33;;;;;;;9.93;99.19;101781.09;4968867;28;20034;-70
2023/04/29 07:28:44;;;;;;;29.65;16.25;;;;;;;10.00;98.78;101789.81;4985047;28;20030;-69
2023/04/29 07:31:11;;;;;;;23.30;14.63;;;;;;;10.05;98.34;101790.44;4985900;28;20434;-69
2023/04/29 07:33:36;;;;;;;28.45;15.90;;;;;;;10.06;97.28;101798.50;4985231;28;20042;-70
2023/04/29 07:36:03;;;;;;;28.67;16.25;;;;;;;10.10;98.17;101791.94;4987509;28;20034;-69
2023/04/29 07:38:29;;;;;;;26.52;16.35;;;;;;;10.21;98.78;101802.19;4984746;28;20109;-69
2023/04/29 07:40:55;;;;;;;32.00;16.73;;;;;;;10.21;97.18;101797.66;4981285;28;20526;-69
2023/04/29 07:43:22;;;;;;;27.20;16.33;;;;;;;10.27;97.14;101807.34;4975524;28;20037;-69
2023/04/29 07:45:48;;;;;;;32.17;16.65;;;;;;;10.40;98.80;101800.28;4986422;28;20046;-69
2023/04/29 07:48:13;;;;;;;30.67;17.63;;;;;;;10.55;98.85;101808.53;4987148;28;20133;-69
2023/04/29 07:50:39;;;;;;;27.77;16.63;;;;;;;10.65;96.89;101807.91;4984494;28;20121;-69
2023/04/29 07:53:05;;;;;;;28.42;15.40;;;;;;;10.77;96.60;101808.16;4986396;28;20181;-69
2023/04/29 07:55:30;;;;;;;37.85;16.58;;;;;;;10.84;96.59;101806.84;4974936;28;20038;-70
2023/04/29 07:57:57;;;;;;;27.63;15.95;;;;;;;10.89;94.51;101813.75;4951218;28;20340;-69
2023/04/29 08:00:23;;;;;;;25.17;14.73;;;;;;;10.87;92.72;101815.72;4985714;28;20117;-69
2023/04/29 08:02:52;;;;;;;27.10;15.57;;;;;;;10.85;92.83;101822.19;4986285;28;20341;-69
2023/04/29 08:05:20;;;;;;;26.65;15.45;;;;;;;10.88;93.57;101820.19;4981893;28;20169;-70
2023/04/29 08:07:50;;;;;;;26.77;15.65;;;;;;;10.97;93.70;101811.47;4965971;28;20178;-69
2023/04/29 08:10:17;;;;;;;29.15;15.80;;;;;;;11.05;95.39;101821.94;4984622;28;20394;-70
2023/04/29 08:12:46;;;;;;;25.15;15.32;;;;;;;11.15;92.66;101816.81;4982448;28;20030;-69
2023/04/29 08:15:11;;;;;;;24.50;14.55;;;;;;;11.25;94.57;101828.91;4984311;28;20490;-70
2023/04/29 08:17:36;;;;;;;25.15;14.05;;;;;;;11.28;91.82;101816.94;4985178;28;20034;-70
2023/04/29 08:20:02;;;;;;;25.30;14.80;;;;;;;11.31;93.29;101831.25;4976555;28;20051;-70
2023/04/29 08:22:27;;;;;;;24.67;13.95;;;;;;;11.24;88.82;101829.88;4966014;28;20034;-70
2023/04/29 08:24:53;;;;;;;25.83;14.20;;;;;;;11.24;89.06;101828.03;4982551;28;20038;-69
2023/04/29 08:27:20;;;;;;;22.95;13.57;;;;;;;11.35;90.53;101832.84;4988210;28;20034;-69
2023/04/29 08:29:45;;;;;;;21.13;14.02;;;;;;;11.47;91.13;101836.66;4984828;28;20036;-70
2023/04/29 08:32:11;;;;;;;23.55;14.20;;;;;;;11.56;88.11;101835.22;4990339;28;20109;-69
2023/04/29 08:34:37;;;;;;;21.67;14.07;;;;;;;11.61;88.25;101836.72;4982871;28;20047;-69
2023/04/29 08:37:02;;;;;;;25.05;13.27;;;;;;;11.59;86.30;101837.78;4968485;28;20398;-70
2023/04/29 08:39:31;;;;;;;23.63;14.90;;;;;;;11.53;87.10;101839.03;4974476;28;20030;-70
2023/04/29 08:41:57;;;;;;;23.17;13.48;;;;;;;11.56;86.76;101843.41;4971248;28;20475;-70
2023/04/29 08:44:27;;;;;;;22.27;14.63;;;;;;;11.70;89.27;101844.34;4981077;28;20550;-70
2023/04/29 08:46:53;;;;;;;25.08;14.40;;;;;;;11.95;86.39;101840.13;4990244;28;20053;-70
2023/04/29 08:49:18;;;;;;;23.35;13.20;;;;;;;12.19;88.06;101846.75;4991081;28;20033;-70
2023/04/29 08:51:46;;;;;;;27.10;14.95;;;;;;;12.25;86.57;101848.22;4989351;28;20046;-70
2023/04/29 08:54:12;;;;;;;23.27;13.73;;;;;;;12.22;84.96;101843.84;4986895;28;20489;-69
2023/04/29 08:56:38;;;;;;;22.38;13.18;;;;;;;12.19;83.75;101848.63;4970580;28;20066;-70
2023/04/29 08:59:07;;;;;;;19.55;13.15;;;;;;;12.26;84.73;101852.69;4977444;28;20050;-70
2023/04/29 09:01:35;;;;;;;23.63;12.98;;;;;;;12.34;83.82;101850.38;4988622;28;20050;-70
2023/04/29 09:04:08;;;;;;;20.27;13.52;;;;;;;12.48;82.88;101847.63;4990224;28;20065;-70
2023/04/29 09:06:34;;;;;;;23.42;12.68;;;;;;;12.52;82.64;101848.31;4983050;28;20130;-70
2023/04/29 09:09:01;;;;;;;23.70;14.00;;;;;;;12.65;85.29;101852.00;4976643;28;20026;-71
2023/04/29 09:11:28;;;;;;;21.08;12.43;;;;;;;12.62;79.92;101856.78;4988549;28;20042;-70
2023/04/29 09:13:59;;;;;;;22.05;12.07;;;;;;;12.84;80.45;101853.53;4980441;28;20545;-71
2023/04/29 09:16:25;;;;;;;25.02;13.20;;;;;;;13.41;84.86;101856.97;4988498;28;20042;-71
2023/04/29 09:18:51;;;;;;;21.20;11.32;;;;;;;14.00;80.92;101849.22;4987316;28;20423;-70
2023/04/29 09:21:23;;;;;;;16.25;10.27;;;;;;;14.49;77.28;101861.25;4989901;28;20418;-70
2023/04/29 09:23:54;;;;;;;18.25;11.23;;;;;;;14.36;72.80;101869.47;4972643;28;20113;-71
2023/04/29 09:26:21;;;;;;;19.60;10.65;;;;;;;14.02;73.06;101858.16;4988470;28;20038;-71
2023/04/29 09:28:48;;;;;;;22.80;10.05;;;;;;;13.87;73.31;101867.47;4971259;28;20039;-71
2023/04/29 09:31:14;;;;;;;15.82;10.73;;;;;;;13.80;75.70;101863.41;4970287;28;20085;-70
2023/04/29 09:33:53;;;;;;;16.45;10.38;;;;;;;13.85;75.20;101857.59;4970335;28;20069;-71
2023/04/29 09:36:35;;;;;;;16.88;10.23;;;;;;;13.84;74.77;101855.84;4968311;28;20122;-71
2023/04/29 09:39:00;;;;;;;21.70;10.30;;;;;;;13.91;73.49;101858.06;4970369;28;20065;-72
2023/04/29 09:41:26;;;;;;;15.55;9.32;;;;;;;14.01;71.62;101867.38;4969679;28;20467;-71
2023/04/29 09:44:11;;;;;;;16.90;9.48;;;;;;;13.87;73.35;101872.06;4970121;28;20045;-72
2023/04/29 09:46:37;;;;;;;17.02;9.52;;;;;;;14.11;76.18;101863.97;4984283;28;20038;-71
2023/04/29 09:49:06;;;;;;;16.77;10.57;;;;;;;14.76;79.33;101867.44;4968736;28;20054;-70
2023/04/29 09:51:31;;;;;;;17.40;10.93;;;;;;;15.37;73.73;101870.19;4972139;28;20630;-70
2023/04/29 09:53:58;;;;;;;17.35;10.60;;;;;;;15.23;68.63;101873.13;4969770;28;20062;-69
2023/04/29 09:56:27;;;;;;;15.77;9.35;;;;;;;15.07;69.26;101867.94;4968924;28;20073;-69
2023/04/29 09:58:54;;;;;;;18.50;9.65;;;;;;;14.84;68.42;101880.59;4969214;28;20402;-69
2023/04/29 10:01:21;;;;;;;11.70;7.90;;;;;;;14.38;68.71;101875.69;4969929;28;20039;-70
2023/04/29 10:03:47;;;;;;;15.27;8.88;;;;;;;14.32;66.78;101878.88;4985342;28;20054;-70
2023/04/29 10:06:15;;;;;;;13.63;8.80;;;;;;;14.82;74.48;101885.28;4983256;28;20487;-69
2023/04/29 10:08:42;;;;;;;14.60;9.95;;;;;;;15.04;71.14;101888.19;4983618;28;20053;-69
2023/04/29 10:11:10;;;;;;;17.85;10.20;;;;;;;15.02;69.82;101892.06;4982896;28;20031;-69
2023/04/29 10:13:37;;;;;;;13.45;8.48;;;;;;;14.77;65.95;101892.97;4969710;28;20410;-70
2023/04/29 10:16:14;;;;;;;15.27;8.55;;;;;;;14.25;66.31;101899.47;4972472;28;20125;-70
2023/04/29 10:18:43;;;;;;;13.02;7.88;;;;;;;14.02;68.17;101895.59;4969433;28;20323;-70
2023/04/29 10:21:10;;;;;;;16.52;9.23;;;;;;;14.27;72.90;101897.50;4967295;28;20035;-69
2023/04/29 10:23:36;;;;;;;16.35;9.07;;;;;;;14.56;67.63;101889.97;4969024;28;20122;-70
2023/04/29 10:26:02;;;;;;;15.68;8.48;;;;;;;14.79;64.32;101893.75;4967934;28;20686;-70
2023/04/29 10:28:31;;;;;;;12.63;6.95;;;;;;;14.89;64.08;101892.09;4967875;28;20113;-69
2023/04/29 10:31:00;;;;;;;14.05;7.75;;;;;;;14.80;62.19;101907.34;4984269;28;20039;-69
2023/04/29 10:33:28;;;;;;;13.23;7.32;;;;;;;14.64;63.66;101894.84;4969046;28;20093;-70
2023/04/29 10:35:54;;;;;;;12.88;7.45;;;;;;;14.48;64.33;101903.31;4968377;28;20074;-70
2023/04/29 10:38:28;;;;;;;14.18;8.32;;;;;;;14.54;67.87;101901.00;4968710;28;20390;-70
2023/04/29 10:40:57;;;;;;;15.43;9.15;;;;;;;14.71;66.43;101901.66;4968671;28;20046;-69
2023/04/29 10:43:23;;;;;;;13.88;7.75;;;;;;;14.83;68.85;101898.03;4968955;28;20027;-70
2023/04/29 10:45:49;;;;;;;13.38;8.45;;;;;;;14.94;68.68;101903.59;4969676;28;20445;-70
2023/04/29 10:48:15;;;;;;;12.27;7.65;;;;;;;15.05;64.10;101894.56;4967231;28;20054;-70
2023/04/29 10:51:00;;;;;;;10.80;7.70;;;;;;;14.96;66.98;101906.19;4983404;28;20517;-69
2023/04/29 10:53:26;;;;;;;14.68;7.80;;;;;;;14.77;66.71;101902.06;4968458;28;20054;-69
2023/04/29 10:56:08;;;;;;;13.30;8.02;;;;;;;14.67;67.81;101906.47;4968415;28;20121;-69
2023/04/29 10:58:44;;;;;;;14.10;9.25;;;;;;;14.70;70.64;101899.91;4968335;28;20042;-68
2023/04/29 11:01:11;;;;;;;16.25;8.93;;;;;;;14.80;69.54;101904.59;4968795;28;20282;-69
2023/04/29 11:03:54;;;;;;;14.45;8.48;;;;;;;14.80;68.60;101911.94;4968434;28;20395;-69
2023/04/29 11:06:23;;;;;;;14.05;8.70;;;;;;;14.80;70.55;101904.59;4966702;28;20129;-69
2023/04/29 11:08:59;;;;;;;13.38;9.10;;;;;;;14.90;70.49;101904.78;4967898;28;20039;-69
2023/04/29 11:11:25;;;;;;;18.45;9.52;;;;;;;15.08;69.88;101913.53;4968248;28;20455;-69
2023/04/29 11:13:51;;;;;;;16.52;8.82;;;;;;;15.24;70.33;101911.38;4968386;28;20130;-69
2023/04/29 11:16:27;;;;;;;13.25;8.65;;;;;;;15.36;70.51;101915.06;4969118;28;20117;-69
2023/04/29 11:19:07;;;;;;;13.88;8.20;;;;;;;15.15;65.63;101917.53;4968348;28;20046;-69